Boldon, United Kingdom
Current Conditions -  °F | °C
As of 12:50 AM on Saturday 25 Oct 2014 (Local Time) from EGNT Reporting Station
Scattered Clouds Scattered Clouds  
Wind Chill:   Ceiling: Unl
Heat Index:   Visibility: 6mi
Dew Point:   Wind: 6mph
Humidity: 82%   Direction: 210°SSW
Pressure: 29.8"   Gusts: NA
Location:  54.94°N, 1.45°W
Report Text: EGNT 242350Z 21005KT 9999 SCT034 09/06 Q1009
Loading
Personal Weather Stations






























Interactive Weather Map
Tropical Storm Tracking
New forecast layout! Learn more

10-Day Weather Forecast

Advertisements
Track Severe Weather on mobile